Cairo, Iowa
Current Conditions -  °F | °C
As of 10:15 PM on Wednesday 28 Jan 2015 (Local Time) from KAWG Reporting Station
NA  
Wind Chill: 30°   Ceiling: NA
Heat Index: 36°   Visibility: NA
Dew Point: 36°   Wind: 7mph
Humidity: 100%   Direction: 150°SSE
Pressure: 29.66"   Gusts: NA
Location:  41.2636°N, 91.4145°W
Report Text: KAWG 290415Z AUTO 15006KT 02/02 A2966 RMK AO2
Loading
Personal Weather Stations






























Interactive Weather Map New forecast layout! Learn more

10-Day Weather Forecast

Advertisements
Track Severe Weather on mobile